Saratoga, Arkansas
Current Conditions -  °F | °C
As of 2:53 PM on Tuesday 25 Nov 2014 (Local Time) from KTXK Reporting Station
Clear Clear  
Wind Chill: 59°   Ceiling: Unl
Heat Index: 59°   Visibility: 10mi
Dew Point: 22°   Wind: 3mph
Humidity: 24%   Direction: NA
Pressure: 30.17"   Gusts: NA
Location:  33.75°N, 93.9°W
Report Text: KTXK 252053Z VRB03KT 10SM CLR 15/M06 A3017 RMK AO2 SLP216 T01501056 56027
Loading
Personal Weather Stations






























Interactive Weather Map New forecast layout! Learn more

10-Day Weather Forecast

Advertisements
Track Severe Weather on mobile